Nanticoke — VCQL — position and weather

sailwx.info

Track history (hours):
 
Tides and Currents Weather Stations Pressure Air Temp Water Temp Dewpoint Dewpoint Depression Visibility Wind Speed Wind Dir Waves Ship Positions

Nanticoke

Last reported at 2014-Jul-28 14:28 UTC. Time now 2014-Jul-29 00:33 UTC.
Position N 46°38' W 071°56'.

Length 222 m; draft 7.4 m.

Type: Cargo ship. MMSI: 316043000.

Date/timePositionNaut miles runAvg speedWind from/ knotsBaromVisibWave heightAir tempDewpointWater temp
2014-Jul-28 14:28N 46°38' W 071°56'1011.2
2014-Jul-28 13:33N 46°33' W 072°09'1212.3
2014-Jul-28 12:33N 46°25' W 072°23'9 8.6
2014-Jul-28 11:33N 46°20' W 072°33'0 0.0
2014-Jul-28 10:33N 46°20' W 072°33'0 0.0
2014-Jul-28 09:33N 46°20' W 072°33'0 0.0
2014-Jul-28 08:33N 46°20' W 072°33'0 0.0
2014-Jul-28 07:33N 46°20' W 072°33'0 0.0
2014-Jul-28 06:33N 46°20' W 072°33'0 0.0
2014-Jul-28 05:33N 46°20' W 072°33'0 0.0
2014-Jul-28 04:33N 46°20' W 072°33'0 0.3
2014-Jul-28 03:33N 46°20' W 072°32'8 7.8
2014-Jul-28 02:33N 46°25' W 072°23'8 7.8
2014-Jul-28 01:33N 46°29' W 072°14'19 9.2
2014-Jul-27 23:30N 46°41' W 071°52'  
2014-Jul-23 19:12N 46°39' W 071°54'1115.3
2014-Jul-23 18:31N 46°34' W 072°07'1313.5
2014-Jul-23 17:33N 46°26' W 072°22'10 9.8
2014-Jul-23 16:33N 46°20' W 072°33'0 0.0
2014-Jul-23 15:33N 46°20' W 072°33'0 0.0
2014-Jul-23 14:33N 46°20' W 072°33'0 0.0
2014-Jul-23 13:33N 46°20' W 072°33'0 0.0
2014-Jul-23 12:33N 46°20' W 072°33'0 0.0
2014-Jul-23 11:33N 46°20' W 072°33'3 3.4
2014-Jul-23 10:33N 46°22' W 072°29'9 8.7
2014-Jul-23 09:33N 46°26' W 072°18'9 8.5
2014-Jul-23 08:32N 46°33' W 072°10'  
Track history (hours):
 
Tides and Currents Weather Stations Pressure Air Temp Water Temp Dewpoint Dewpoint Depression Visibility Wind Speed Wind Dir Waves Ship Positions

Nanticoke

Last reported at 2014-Jul-28 14:28 UTC. Time now 2014-Jul-29 00:33 UTC.
Position N 46°38' W 071°56'.

Length 222 m; draft 7.4 m.

Type: Cargo ship. MMSI: 316043000.

Date/timePositionNaut miles runAvg speedWind from/ knotsBaromVisibWave heightAir tempDewpointWater temp
2014-Jul-28 14:28N 46°38' W 071°56'1011.2
2014-Jul-28 13:33N 46°33' W 072°09'1212.3
2014-Jul-28 12:33N 46°25' W 072°23'9 8.6
2014-Jul-28 11:33N 46°20' W 072°33'0 0.0
2014-Jul-28 10:33N 46°20' W 072°33'0 0.0
2014-Jul-28 09:33N 46°20' W 072°33'0 0.0
2014-Jul-28 08:33N 46°20' W 072°33'0 0.0
2014-Jul-28 07:33N 46°20' W 072°33'0 0.0
2014-Jul-28 06:33N 46°20' W 072°33'0 0.0
2014-Jul-28 05:33N 46°20' W 072°33'0 0.0
2014-Jul-28 04:33N 46°20' W 072°33'0 0.3
2014-Jul-28 03:33N 46°20' W 072°32'8 7.8
2014-Jul-28 02:33N 46°25' W 072°23'8 7.8
2014-Jul-28 01:33N 46°29' W 072°14'19 9.2
2014-Jul-27 23:30N 46°41' W 071°52'  
2014-Jul-23 19:12N 46°39' W 071°54'1115.3
2014-Jul-23 18:31N 46°34' W 072°07'1313.5
2014-Jul-23 17:33N 46°26' W 072°22'10 9.8
2014-Jul-23 16:33N 46°20' W 072°33'0 0.0
2014-Jul-23 15:33N 46°20' W 072°33'0 0.0
2014-Jul-23 14:33N 46°20' W 072°33'0 0.0
2014-Jul-23 13:33N 46°20' W 072°33'0 0.0
2014-Jul-23 12:33N 46°20' W 072°33'0 0.0
2014-Jul-23 11:33N 46°20' W 072°33'3 3.4
2014-Jul-23 10:33N 46°22' W 072°29'9 8.7
2014-Jul-23 09:33N 46°26' W 072°18'9 8.5
2014-Jul-23 08:32N 46°33' W 072°10'  

Dump ship's entire track history